sensor_id;sensor_type;location;lat;lon;timestamp;temperature;humidity
22249;DHT22;67538;52.180;5.646;2023-04-16T00:00:13;8.50;99.90
22249;DHT22;67538;52.180;5.646;2023-04-16T00:02:40;8.60;99.90
22249;DHT22;67538;52.180;5.646;2023-04-16T00:05:08;8.60;99.90
22249;DHT22;67538;52.180;5.646;2023-04-16T00:07:36;8.60;99.90
22249;DHT22;67538;52.180;5.646;2023-04-16T00:10:04;8.60;99.90
22249;DHT22;67538;52.180;5.646;2023-04-16T00:12:32;8.50;99.90
22249;DHT22;67538;52.180;5.646;2023-04-16T00:14:59;8.60;99.90
22249;DHT22;67538;52.180;5.646;2023-04-16T00:17:26;8.60;99.90
22249;DHT22;67538;52.180;5.646;2023-04-16T00:19:53;8.60;99.90
22249;DHT22;67538;52.180;5.646;2023-04-16T00:22:20;8.60;99.90
22249;DHT22;67538;52.180;5.646;2023-04-16T00:24:49;8.60;99.90
22249;DHT22;67538;52.180;5.646;2023-04-16T00:27:17;8.50;99.90
22249;DHT22;67538;52.180;5.646;2023-04-16T00:29:44;8.60;99.90
22249;DHT22;67538;52.180;5.646;2023-04-16T00:32:12;8.60;99.90
22249;DHT22;67538;52.180;5.646;2023-04-16T00:34:39;8.60;99.90
22249;DHT22;67538;52.180;5.646;2023-04-16T00:37:06;8.60;99.90
22249;DHT22;67538;52.180;5.646;2023-04-16T00:39:33;8.60;99.90
22249;DHT22;67538;52.180;5.646;2023-04-16T00:42:01;8.60;99.90
22249;DHT22;67538;52.180;5.646;2023-04-16T00:44:28;8.60;99.90
22249;DHT22;67538;52.180;5.646;2023-04-16T00:46:56;8.60;99.90
22249;DHT22;67538;52.180;5.646;2023-04-16T00:49:23;8.60;99.90
22249;DHT22;67538;52.180;5.646;2023-04-16T00:51:50;8.60;99.90
22249;DHT22;67538;52.180;5.646;2023-04-16T00:54:17;8.60;99.90
22249;DHT22;67538;52.180;5.646;2023-04-16T00:56:45;8.60;99.90
22249;DHT22;67538;52.180;5.646;2023-04-16T00:59:14;8.60;99.90
22249;DHT22;67538;52.180;5.646;2023-04-16T01:01:42;8.60;99.90
22249;DHT22;67538;52.180;5.646;2023-04-16T01:04:09;8.60;99.90
22249;DHT22;67538;52.180;5.646;2023-04-16T01:06:36;8.70;99.90
22249;DHT22;67538;52.180;5.646;2023-04-16T01:09:03;8.70;99.90
22249;DHT22;67538;52.180;5.646;2023-04-16T01:11:31;8.60;99.90
22249;DHT22;67538;52.180;5.646;2023-04-16T01:13:58;8.70;99.90
22249;DHT22;67538;52.180;5.646;2023-04-16T01:16:26;8.60;99.90
22249;DHT22;67538;52.180;5.646;2023-04-16T01:18:53;8.60;99.90
22249;DHT22;67538;52.180;5.646;2023-04-16T01:21:22;8.60;99.90
22249;DHT22;67538;52.180;5.646;2023-04-16T01:23:49;8.70;99.90
22249;DHT22;67538;52.180;5.646;2023-04-16T01:26:16;8.70;99.90
22249;DHT22;67538;52.180;5.646;2023-04-16T01:28:44;8.70;99.90
22249;DHT22;67538;52.180;5.646;2023-04-16T01:31:11;8.70;99.90
22249;DHT22;67538;52.180;5.646;2023-04-16T01:33:38;8.70;99.90
22249;DHT22;67538;52.180;5.646;2023-04-16T01:36:06;8.70;99.90
22249;DHT22;67538;52.180;5.646;2023-04-16T01:38:34;8.70;99.90
22249;DHT22;67538;52.180;5.646;2023-04-16T01:41:02;8.70;99.90
22249;DHT22;67538;52.180;5.646;2023-04-16T01:43:29;8.70;99.90
22249;DHT22;67538;52.180;5.646;2023-04-16T01:46:10;8.70;99.90
22249;DHT22;67538;52.180;5.646;2023-04-16T01:48:38;8.70;99.90
22249;DHT22;67538;52.180;5.646;2023-04-16T01:51:05;8.70;99.90
22249;DHT22;67538;52.180;5.646;2023-04-16T01:53:33;8.70;99.90
22249;DHT22;67538;52.180;5.646;2023-04-16T01:56:00;8.70;99.90
22249;DHT22;67538;52.180;5.646;2023-04-16T01:58:28;8.70;99.90
22249;DHT22;67538;52.180;5.646;2023-04-16T02:00:55;8.70;99.90
22249;DHT22;67538;52.180;5.646;2023-04-16T02:03:22;8.70;99.90
22249;DHT22;67538;52.180;5.646;2023-04-16T02:05:50;8.70;99.90
22249;DHT22;67538;52.180;5.646;2023-04-16T02:08:17;8.70;99.90
22249;DHT22;67538;52.180;5.646;2023-04-16T02:10:46;8.70;99.90
22249;DHT22;67538;52.180;5.646;2023-04-16T02:13:14;8.70;99.90
22249;DHT22;67538;52.180;5.646;2023-04-16T02:15:44;8.70;99.90
22249;DHT22;67538;52.180;5.646;2023-04-16T02:18:12;8.70;99.90
22249;DHT22;67538;52.180;5.646;2023-04-16T02:20:39;8.70;99.90
22249;DHT22;67538;52.180;5.646;2023-04-16T02:23:07;8.70;99.90
22249;DHT22;67538;52.180;5.646;2023-04-16T02:25:38;8.70;99.90
22249;DHT22;67538;52.180;5.646;2023-04-16T02:28:07;8.70;99.90
22249;DHT22;67538;52.180;5.646;2023-04-16T02:30:34;8.70;99.90
22249;DHT22;67538;52.180;5.646;2023-04-16T02:33:01;8.70;99.90
22249;DHT22;67538;52.180;5.646;2023-04-16T02:35:30;8.70;99.90
22249;DHT22;67538;52.180;5.646;2023-04-16T02:37:57;8.70;99.90
22249;DHT22;67538;52.180;5.646;2023-04-16T02:40:25;8.70;99.90
22249;DHT22;67538;52.180;5.646;2023-04-16T02:42:52;8.70;99.90
22249;DHT22;67538;52.180;5.646;2023-04-16T02:45:21;8.70;99.90
22249;DHT22;67538;52.180;5.646;2023-04-16T02:47:49;8.70;99.90
22249;DHT22;67538;52.180;5.646;2023-04-16T02:50:17;8.70;99.90
22249;DHT22;67538;52.180;5.646;2023-04-16T02:52:44;8.70;99.90
22249;DHT22;67538;52.180;5.646;2023-04-16T02:55:11;8.70;99.90
22249;DHT22;67538;52.180;5.646;2023-04-16T02:57:38;8.70;99.90
22249;DHT22;67538;52.180;5.646;2023-04-16T03:00:06;8.70;99.90
22249;DHT22;67538;52.180;5.646;2023-04-16T03:02:35;8.70;99.90
22249;DHT22;67538;52.180;5.646;2023-04-16T03:05:02;8.70;99.90
22249;DHT22;67538;52.180;5.646;2023-04-16T03:07:29;8.70;99.90
22249;DHT22;67538;52.180;5.646;2023-04-16T03:09:56;8.70;99.90
22249;DHT22;67538;52.180;5.646;2023-04-16T03:12:23;8.70;99.90
22249;DHT22;67538;52.180;5.646;2023-04-16T03:14:50;8.70;99.90
22249;DHT22;67538;52.180;5.646;2023-04-16T03:17:18;8.70;99.90
22249;DHT22;67538;52.180;5.646;2023-04-16T03:19:46;8.70;99.90
22249;DHT22;67538;52.180;5.646;2023-04-16T03:22:15;8.70;99.90
22249;DHT22;67538;52.180;5.646;2023-04-16T03:24:42;8.70;99.90
22249;DHT22;67538;52.180;5.646;2023-04-16T03:27:09;8.70;99.90
22249;DHT22;67538;52.180;5.646;2023-04-16T03:29:36;8.70;99.90
22249;DHT22;67538;52.180;5.646;2023-04-16T03:32:03;8.70;99.90
22249;DHT22;67538;52.180;5.646;2023-04-16T03:34:31;8.70;99.90
22249;DHT22;67538;52.180;5.646;2023-04-16T03:36:59;8.70;99.90
22249;DHT22;67538;52.180;5.646;2023-04-16T03:39:26;8.70;99.90
22249;DHT22;67538;52.180;5.646;2023-04-16T03:41:53;8.70;99.90
22249;DHT22;67538;52.180;5.646;2023-04-16T03:44:20;8.70;99.90
22249;DHT22;67538;52.180;5.646;2023-04-16T03:46:47;8.70;99.90
22249;DHT22;67538;52.180;5.646;2023-04-16T03:49:14;8.70;99.90
22249;DHT22;67538;52.180;5.646;2023-04-16T03:51:41;8.70;99.90
22249;DHT22;67538;52.180;5.646;2023-04-16T03:54:09;8.70;99.90
22249;DHT22;67538;52.180;5.646;2023-04-16T03:56:38;8.70;99.90
22249;DHT22;67538;52.180;5.646;2023-04-16T03:59:06;8.70;99.90
22249;DHT22;67538;52.180;5.646;2023-04-16T04:01:33;8.70;99.90
22249;DHT22;67538;52.180;5.646;2023-04-16T04:04:00;8.70;99.90
22249;DHT22;67538;52.180;5.646;2023-04-16T04:06:27;8.70;99.90
22249;DHT22;67538;52.180;5.646;2023-04-16T04:08:55;8.70;99.90
22249;DHT22;67538;52.180;5.646;2023-04-16T04:11:24;8.70;99.90
22249;DHT22;67538;52.180;5.646;2023-04-16T04:13:51;8.70;99.90
22249;DHT22;67538;52.180;5.646;2023-04-16T04:16:18;8.70;99.90
22249;DHT22;67538;52.180;5.646;2023-04-16T04:18:45;8.70;99.90
22249;DHT22;67538;52.180;5.646;2023-04-16T04:21:12;8.60;99.90
22249;DHT22;67538;52.180;5.646;2023-04-16T04:23:39;8.70;99.90
22249;DHT22;67538;52.180;5.646;2023-04-16T04:26:08;8.70;99.90
22249;DHT22;67538;52.180;5.646;2023-04-16T04:28:36;8.70;99.90
22249;DHT22;67538;52.180;5.646;2023-04-16T04:31:04;8.60;99.90
22249;DHT22;67538;52.180;5.646;2023-04-16T04:33:31;8.70;99.90
22249;DHT22;67538;52.180;5.646;2023-04-16T04:35:58;8.70;99.90
22249;DHT22;67538;52.180;5.646;2023-04-16T04:38:25;8.70;99.90
22249;DHT22;67538;52.180;5.646;2023-04-16T04:40:52;8.60;99.90
22249;DHT22;67538;52.180;5.646;2023-04-16T04:43:19;8.60;99.90
22249;DHT22;67538;52.180;5.646;2023-04-16T04:45:48;8.60;99.90
22249;DHT22;67538;52.180;5.646;2023-04-16T04:48:15;8.70;99.90
22249;DHT22;67538;52.180;5.646;2023-04-16T04:50:44;8.60;99.90
22249;DHT22;67538;52.180;5.646;2023-04-16T04:53:11;8.70;99.90
22249;DHT22;67538;52.180;5.646;2023-04-16T04:55:39;8.70;99.90
22249;DHT22;67538;52.180;5.646;2023-04-16T04:58:07;8.70;99.90
22249;DHT22;67538;52.180;5.646;2023-04-16T05:00:35;8.70;99.90
22249;DHT22;67538;52.180;5.646;2023-04-16T05:03:05;8.60;99.90
22249;DHT22;67538;52.180;5.646;2023-04-16T05:05:32;8.70;99.90
22249;DHT22;67538;52.180;5.646;2023-04-16T05:07:59;8.70;99.90
22249;DHT22;67538;52.180;5.646;2023-04-16T05:10:26;8.70;99.90
22249;DHT22;67538;52.180;5.646;2023-04-16T05:12:53;8.70;99.90
22249;DHT22;67538;52.180;5.646;2023-04-16T05:15:20;8.70;99.90
22249;DHT22;67538;52.180;5.646;2023-04-16T05:17:48;8.70;99.90
22249;DHT22;67538;52.180;5.646;2023-04-16T05:20:16;8.70;99.90
22249;DHT22;67538;52.180;5.646;2023-04-16T05:22:43;8.70;99.90
22249;DHT22;67538;52.180;5.646;2023-04-16T05:25:10;8.80;99.90
22249;DHT22;67538;52.180;5.646;2023-04-16T05:27:37;8.70;99.90
22249;DHT22;67538;52.180;5.646;2023-04-16T05:30:06;8.80;99.90
22249;DHT22;67538;52.180;5.646;2023-04-16T05:32:33;8.80;99.90
22249;DHT22;67538;52.180;5.646;2023-04-16T05:35:00;8.80;99.90
22249;DHT22;67538;52.180;5.646;2023-04-16T05:37:29;8.80;99.90
22249;DHT22;67538;52.180;5.646;2023-04-16T05:39:56;8.80;99.90
22249;DHT22;67538;52.180;5.646;2023-04-16T05:42:23;8.80;99.90
22249;DHT22;67538;52.180;5.646;2023-04-16T05:44:50;8.80;99.90
22249;DHT22;67538;52.180;5.646;2023-04-16T05:47:17;8.80;99.90
22249;DHT22;67538;52.180;5.646;2023-04-16T05:49:44;8.80;99.90
22249;DHT22;67538;52.180;5.646;2023-04-16T05:52:11;8.80;99.90
22249;DHT22;67538;52.180;5.646;2023-04-16T05:54:39;8.90;99.90
22249;DHT22;67538;52.180;5.646;2023-04-16T05:57:06;8.90;99.90
22249;DHT22;67538;52.180;5.646;2023-04-16T05:59:33;8.90;99.90
22249;DHT22;67538;52.180;5.646;2023-04-16T06:02:00;8.90;99.90
22249;DHT22;67538;52.180;5.646;2023-04-16T06:04:27;8.90;99.90
22249;DHT22;67538;52.180;5.646;2023-04-16T06:06:55;8.90;99.90
22249;DHT22;67538;52.180;5.646;2023-04-16T06:09:22;8.90;99.90
22249;DHT22;67538;52.180;5.646;2023-04-16T06:11:51;8.90;99.90
22249;DHT22;67538;52.180;5.646;2023-04-16T06:14:18;9.00;99.90
22249;DHT22;67538;52.180;5.646;2023-04-16T06:16:45;9.00;99.90
22249;DHT22;67538;52.180;5.646;2023-04-16T06:19:12;9.00;99.90
22249;DHT22;67538;52.180;5.646;2023-04-16T06:21:39;9.00;99.90
22249;DHT22;67538;52.180;5.646;2023-04-16T06:24:06;9.10;99.90
22249;DHT22;67538;52.180;5.646;2023-04-16T06:26:33;9.10;99.90
22249;DHT22;67538;52.180;5.646;2023-04-16T06:29:02;9.10;99.90
22249;DHT22;67538;52.180;5.646;2023-04-16T06:31:29;9.10;99.90
22249;DHT22;67538;52.180;5.646;2023-04-16T06:33:56;9.10;99.90
22249;DHT22;67538;52.180;5.646;2023-04-16T06:36:23;9.10;99.90
22249;DHT22;67538;52.180;5.646;2023-04-16T06:38:52;9.10;99.90
22249;DHT22;67538;52.180;5.646;2023-04-16T06:41:19;9.20;99.90
22249;DHT22;67538;52.180;5.646;2023-04-16T06:43:47;9.20;99.90
22249;DHT22;67538;52.180;5.646;2023-04-16T06:46:16;9.20;99.90
22249;DHT22;67538;52.180;5.646;2023-04-16T06:48:43;9.20;99.90
22249;DHT22;67538;52.180;5.646;2023-04-16T06:51:10;9.30;99.90
22249;DHT22;67538;52.180;5.646;2023-04-16T06:53:38;9.30;99.90
22249;DHT22;67538;52.180;5.646;2023-04-16T06:56:05;9.30;99.90
22249;DHT22;67538;52.180;5.646;2023-04-16T06:58:32;9.30;99.90
22249;DHT22;67538;52.180;5.646;2023-04-16T07:00:59;9.30;99.90
22249;DHT22;67538;52.180;5.646;2023-04-16T07:03:28;9.30;99.90
22249;DHT22;67538;52.180;5.646;2023-04-16T07:05:56;9.30;99.90
22249;DHT22;67538;52.180;5.646;2023-04-16T07:08:23;9.30;99.90
22249;DHT22;67538;52.180;5.646;2023-04-16T07:10:50;9.30;99.90
22249;DHT22;67538;52.180;5.646;2023-04-16T07:13:18;9.30;99.90
22249;DHT22;67538;52.180;5.646;2023-04-16T07:15:46;9.30;99.90
22249;DHT22;67538;52.180;5.646;2023-04-16T07:18:13;9.30;99.90
22249;DHT22;67538;52.180;5.646;2023-04-16T07:20:41;9.30;99.90
22249;DHT22;67538;52.180;5.646;2023-04-16T07:23:08;9.30;99.90
22249;DHT22;67538;52.180;5.646;2023-04-16T07:25:36;9.40;99.90
22249;DHT22;67538;52.180;5.646;2023-04-16T07:28:03;9.40;99.90
22249;DHT22;67538;52.180;5.646;2023-04-16T07:30:30;9.40;99.90
22249;DHT22;67538;52.180;5.646;2023-04-16T07:32:59;9.40;99.90
22249;DHT22;67538;52.180;5.646;2023-04-16T07:35:26;9.40;99.90
22249;DHT22;67538;52.180;5.646;2023-04-16T07:37:55;9.40;99.90
22249;DHT22;67538;52.180;5.646;2023-04-16T07:40:22;9.40;99.90
22249;DHT22;67538;52.180;5.646;2023-04-16T07:42:49;9.50;99.90
22249;DHT22;67538;52.180;5.646;2023-04-16T07:45:17;9.50;99.90
22249;DHT22;67538;52.180;5.646;2023-04-16T07:47:44;9.50;99.90
22249;DHT22;67538;52.180;5.646;2023-04-16T07:50:11;9.50;99.90
22249;DHT22;67538;52.180;5.646;2023-04-16T07:52:39;9.50;99.90
22249;DHT22;67538;52.180;5.646;2023-04-16T07:55:08;9.60;99.90
22249;DHT22;67538;52.180;5.646;2023-04-16T07:57:35;9.60;99.90
22249;DHT22;67538;52.180;5.646;2023-04-16T08:00:03;9.60;99.90
22249;DHT22;67538;52.180;5.646;2023-04-16T08:02:31;9.60;99.90
22249;DHT22;67538;52.180;5.646;2023-04-16T08:04:58;9.70;99.90
22249;DHT22;67538;52.180;5.646;2023-04-16T08:07:25;9.70;99.90
22249;DHT22;67538;52.180;5.646;2023-04-16T08:09:52;9.70;99.90
22249;DHT22;67538;52.180;5.646;2023-04-16T08:12:21;9.80;99.90
22249;DHT22;67538;52.180;5.646;2023-04-16T08:14:48;9.80;99.90
22249;DHT22;67538;52.180;5.646;2023-04-16T08:17:15;9.80;99.90
22249;DHT22;67538;52.180;5.646;2023-04-16T08:19:42;9.80;99.90
22249;DHT22;67538;52.180;5.646;2023-04-16T08:22:10;9.80;99.90
22249;DHT22;67538;52.180;5.646;2023-04-16T08:24:37;9.80;99.90
22249;DHT22;67538;52.180;5.646;2023-04-16T08:27:04;9.90;99.90
22249;DHT22;67538;52.180;5.646;2023-04-16T08:29:33;9.90;99.90
22249;DHT22;67538;52.180;5.646;2023-04-16T08:32:00;9.90;99.90
22249;DHT22;67538;52.180;5.646;2023-04-16T08:34:27;9.90;99.90
22249;DHT22;67538;52.180;5.646;2023-04-16T08:36:54;9.90;99.90
22249;DHT22;67538;52.180;5.646;2023-04-16T08:39:21;9.90;99.90
22249;DHT22;67538;52.180;5.646;2023-04-16T08:41:49;9.90;99.90
22249;DHT22;67538;52.180;5.646;2023-04-16T08:44:21;9.90;99.90
22249;DHT22;67538;52.180;5.646;2023-04-16T08:46:52;9.90;99.90
22249;DHT22;67538;52.180;5.646;2023-04-16T08:49:23;9.80;99.90
22249;DHT22;67538;52.180;5.646;2023-04-16T08:51:51;9.90;99.90
22249;DHT22;67538;52.180;5.646;2023-04-16T08:54:30;9.90;99.90
22249;DHT22;67538;52.180;5.646;2023-04-16T08:56:58;9.90;99.90
22249;DHT22;67538;52.180;5.646;2023-04-16T08:59:26;9.90;99.90
22249;DHT22;67538;52.180;5.646;2023-04-16T09:01:57;9.90;99.90
22249;DHT22;67538;52.180;5.646;2023-04-16T09:04:25;9.90;99.90
22249;DHT22;67538;52.180;5.646;2023-04-16T09:06:54;9.90;99.90
22249;DHT22;67538;52.180;5.646;2023-04-16T09:09:22;10.00;99.90
22249;DHT22;67538;52.180;5.646;2023-04-16T09:11:50;10.00;99.90
22249;DHT22;67538;52.180;5.646;2023-04-16T09:14:18;10.10;99.90
22249;DHT22;67538;52.180;5.646;2023-04-16T09:16:45;10.10;99.90
22249;DHT22;67538;52.180;5.646;2023-04-16T09:19:14;10.20;99.90
22249;DHT22;67538;52.180;5.646;2023-04-16T09:21:45;10.20;99.90
22249;DHT22;67538;52.180;5.646;2023-04-16T09:24:13;10.30;99.90
22249;DHT22;67538;52.180;5.646;2023-04-16T09:26:41;10.40;99.90
22249;DHT22;67538;52.180;5.646;2023-04-16T09:29:09;10.40;99.90
22249;DHT22;67538;52.180;5.646;2023-04-16T09:31:36;10.60;99.90
22249;DHT22;67538;52.180;5.646;2023-04-16T09:34:04;10.70;99.90
22249;DHT22;67538;52.180;5.646;2023-04-16T09:36:34;10.80;99.90
22249;DHT22;67538;52.180;5.646;2023-04-16T09:39:01;10.70;99.90
22249;DHT22;67538;52.180;5.646;2023-04-16T09:41:30;10.80;99.90
22249;DHT22;67538;52.180;5.646;2023-04-16T09:44:01;10.80;99.90
22249;DHT22;67538;52.180;5.646;2023-04-16T09:46:30;10.90;99.90
22249;DHT22;67538;52.180;5.646;2023-04-16T09:48:57;11.00;99.90
22249;DHT22;67538;52.180;5.646;2023-04-16T09:51:35;11.10;99.90
22249;DHT22;67538;52.180;5.646;2023-04-16T09:54:03;11.20;99.90
22249;DHT22;67538;52.180;5.646;2023-04-16T09:56:31;11.20;99.90
22249;DHT22;67538;52.180;5.646;2023-04-16T09:58:59;11.30;99.90
22249;DHT22;67538;52.180;5.646;2023-04-16T10:01:26;11.40;99.90
22249;DHT22;67538;52.180;5.646;2023-04-16T10:03:54;11.50;99.90
22249;DHT22;67538;52.180;5.646;2023-04-16T10:06:22;11.50;99.90
22249;DHT22;67538;52.180;5.646;2023-04-16T10:08:53;11.50;99.90
22249;DHT22;67538;52.180;5.646;2023-04-16T10:11:22;11.60;99.90
22249;DHT22;67538;52.180;5.646;2023-04-16T10:13:49;11.50;99.90
22249;DHT22;67538;52.180;5.646;2023-04-16T10:16:16;11.50;99.90
22249;DHT22;67538;52.180;5.646;2023-04-16T10:18:45;11.60;99.90
22249;DHT22;67538;52.180;5.646;2023-04-16T10:21:12;11.60;99.90
22249;DHT22;67538;52.180;5.646;2023-04-16T10:23:41;11.70;99.90
22249;DHT22;67538;52.180;5.646;2023-04-16T10:26:10;11.60;99.90
22249;DHT22;67538;52.180;5.646;2023-04-16T10:28:37;11.60;99.90
22249;DHT22;67538;52.180;5.646;2023-04-16T10:31:07;11.50;99.90
22249;DHT22;67538;52.180;5.646;2023-04-16T10:33:35;11.50;99.90
22249;DHT22;67538;52.180;5.646;2023-04-16T10:36:10;11.60;99.90
22249;DHT22;67538;52.180;5.646;2023-04-16T10:38:38;11.70;99.90
22249;DHT22;67538;52.180;5.646;2023-04-16T10:41:07;11.80;99.90
22249;DHT22;67538;52.180;5.646;2023-04-16T10:43:39;11.80;99.90
22249;DHT22;67538;52.180;5.646;2023-04-16T10:46:17;11.80;99.90
22249;DHT22;67538;52.180;5.646;2023-04-16T10:48:44;12.00;99.90
22249;DHT22;67538;52.180;5.646;2023-04-16T10:51:23;12.10;99.90
22249;DHT22;67538;52.180;5.646;2023-04-16T10:53:51;12.10;99.90
22249;DHT22;67538;52.180;5.646;2023-04-16T10:56:22;12.00;99.90
22249;DHT22;67538;52.180;5.646;2023-04-16T10:58:52;12.00;99.90
22249;DHT22;67538;52.180;5.646;2023-04-16T11:01:28;11.90;99.90
22249;DHT22;67538;52.180;5.646;2023-04-16T11:03:57;11.90;99.90
22249;DHT22;67538;52.180;5.646;2023-04-16T11:06:26;11.90;99.90
22249;DHT22;67538;52.180;5.646;2023-04-16T11:08:54;11.80;99.90
22249;DHT22;67538;52.180;5.646;2023-04-16T11:11:21;11.80;99.90
22249;DHT22;67538;52.180;5.646;2023-04-16T11:13:48;11.70;99.90
22249;DHT22;67538;52.180;5.646;2023-04-16T11:16:21;11.60;99.90
22249;DHT22;67538;52.180;5.646;2023-04-16T11:18:50;11.60;99.90
22249;DHT22;67538;52.180;5.646;2023-04-16T11:21:17;11.60;99.90
22249;DHT22;67538;52.180;5.646;2023-04-16T11:23:46;11.50;99.90
22249;DHT22;67538;52.180;5.646;2023-04-16T11:26:22;11.60;99.90
22249;DHT22;67538;52.180;5.646;2023-04-16T11:28:49;11.50;99.90
22249;DHT22;67538;52.180;5.646;2023-04-16T11:31:16;11.50;99.90
22249;DHT22;67538;52.180;5.646;2023-04-16T11:33:45;11.50;99.90
22249;DHT22;67538;52.180;5.646;2023-04-16T11:36:12;11.50;99.90
22249;DHT22;67538;52.180;5.646;2023-04-16T11:38:39;11.50;99.90
22249;DHT22;67538;52.180;5.646;2023-04-16T11:41:08;11.50;99.90
22249;DHT22;67538;52.180;5.646;2023-04-16T11:43:35;11.50;99.90
22249;DHT22;67538;52.180;5.646;2023-04-16T11:46:03;11.60;99.90
22249;DHT22;67538;52.180;5.646;2023-04-16T11:48:49;11.70;99.90
22249;DHT22;67538;52.180;5.646;2023-04-16T11:51:16;11.70;99.90
22249;DHT22;67538;52.180;5.646;2023-04-16T11:53:48;11.80;99.90
22249;DHT22;67538;52.180;5.646;2023-04-16T11:56:23;11.80;99.90
22249;DHT22;67538;52.180;5.646;2023-04-16T11:59:05;11.80;99.90
22249;DHT22;67538;52.180;5.646;2023-04-16T12:01:34;11.80;99.90
22249;DHT22;67538;52.180;5.646;2023-04-16T12:04:03;11.80;99.90
22249;DHT22;67538;52.180;5.646;2023-04-16T12:06:30;11.90;99.90
22249;DHT22;67538;52.180;5.646;2023-04-16T12:08:58;11.90;99.90
22249;DHT22;67538;52.180;5.646;2023-04-16T12:11:43;11.90;99.90
22249;DHT22;67538;52.180;5.646;2023-04-16T12:14:11;11.90;99.90
22249;DHT22;67538;52.180;5.646;2023-04-16T12:16:38;11.90;99.90
22249;DHT22;67538;52.180;5.646;2023-04-16T12:19:10;11.90;99.90
22249;DHT22;67538;52.180;5.646;2023-04-16T12:21:39;11.90;99.90
22249;DHT22;67538;52.180;5.646;2023-04-16T12:24:07;12.00;99.90
22249;DHT22;67538;52.180;5.646;2023-04-16T12:26:39;11.90;99.90
22249;DHT22;67538;52.180;5.646;2023-04-16T12:29:20;11.80;99.90
22249;DHT22;67538;52.180;5.646;2023-04-16T12:31:49;11.70;99.90
22249;DHT22;67538;52.180;5.646;2023-04-16T12:34:18;11.70;99.90
22249;DHT22;67538;52.180;5.646;2023-04-16T12:36:46;11.60;99.90
22249;DHT22;67538;52.180;5.646;2023-04-16T12:39:14;11.60;99.90
22249;DHT22;67538;52.180;5.646;2023-04-16T12:41:42;11.50;99.90
22249;DHT22;67538;52.180;5.646;2023-04-16T12:44:11;11.50;99.90
22249;DHT22;67538;52.180;5.646;2023-04-16T12:46:39;11.50;99.90
22249;DHT22;67538;52.180;5.646;2023-04-16T12:49:06;11.50;99.90
22249;DHT22;67538;52.180;5.646;2023-04-16T12:51:35;11.40;99.90
22249;DHT22;67538;52.180;5.646;2023-04-16T12:54:04;11.40;99.90
22249;DHT22;67538;52.180;5.646;2023-04-16T12:56:32;11.40;99.90
22249;DHT22;67538;52.180;5.646;2023-04-16T12:58:59;11.40;99.90
22249;DHT22;67538;52.180;5.646;2023-04-16T13:01:26;11.50;99.90
22249;DHT22;67538;52.180;5.646;2023-04-16T13:03:53;11.60;99.90
22249;DHT22;67538;52.180;5.646;2023-04-16T13:06:20;11.70;99.90
22249;DHT22;67538;52.180;5.646;2023-04-16T13:08:49;11.70;99.90
22249;DHT22;67538;52.180;5.646;2023-04-16T13:11:16;11.60;99.90
22249;DHT22;67538;52.180;5.646;2023-04-16T13:13:43;11.70;99.90
22249;DHT22;67538;52.180;5.646;2023-04-16T13:16:10;11.70;99.90
22249;DHT22;67538;52.180;5.646;2023-04-16T13:18:37;11.70;99.90
22249;DHT22;67538;52.180;5.646;2023-04-16T13:21:05;11.70;99.90
22249;DHT22;67538;52.180;5.646;2023-04-16T13:23:33;11.70;99.90
22249;DHT22;67538;52.180;5.646;2023-04-16T13:26:02;11.70;99.90
22249;DHT22;67538;52.180;5.646;2023-04-16T13:28:29;11.70;99.90
22249;DHT22;67538;52.180;5.646;2023-04-16T13:30:56;11.80;99.90
22249;DHT22;67538;52.180;5.646;2023-04-16T13:33:24;11.90;99.90
22249;DHT22;67538;52.180;5.646;2023-04-16T13:35:51;11.90;99.90
22249;DHT22;67538;52.180;5.646;2023-04-16T13:38:18;12.00;99.90
22249;DHT22;67538;52.180;5.646;2023-04-16T13:40:45;12.00;99.90
22249;DHT22;67538;52.180;5.646;2023-04-16T13:43:14;11.90;99.90
22249;DHT22;67538;52.180;5.646;2023-04-16T13:45:43;11.80;99.90
22249;DHT22;67538;52.180;5.646;2023-04-16T13:48:10;11.80;99.90
22249;DHT22;67538;52.180;5.646;2023-04-16T13:50:37;11.70;99.90
22249;DHT22;67538;52.180;5.646;2023-04-16T13:53:04;11.70;99.90
22249;DHT22;67538;52.180;5.646;2023-04-16T13:55:32;11.70;99.90
22249;DHT22;67538;52.180;5.646;2023-04-16T13:57:59;11.70;99.90
22249;DHT22;67538;52.180;5.646;2023-04-16T14:00:27;11.70;99.90
22249;DHT22;67538;52.180;5.646;2023-04-16T14:02:54;11.70;99.90
22249;DHT22;67538;52.180;5.646;2023-04-16T14:05:21;11.70;99.90
22249;DHT22;67538;52.180;5.646;2023-04-16T14:07:49;11.80;99.90
22249;DHT22;67538;52.180;5.646;2023-04-16T14:10:16;11.80;99.90
22249;DHT22;67538;52.180;5.646;2023-04-16T14:12:43;11.80;99.90
22249;DHT22;67538;52.180;5.646;2023-04-16T14:15:11;11.80;99.90
22249;DHT22;67538;52.180;5.646;2023-04-16T14:17:41;11.80;99.90
22249;DHT22;67538;52.180;5.646;2023-04-16T14:20:10;11.80;99.90
22249;DHT22;67538;52.180;5.646;2023-04-16T14:22:37;11.80;99.90
22249;DHT22;67538;52.180;5.646;2023-04-16T14:25:05;11.90;99.90
22249;DHT22;67538;52.180;5.646;2023-04-16T14:27:32;12.00;99.90
22249;DHT22;67538;52.180;5.646;2023-04-16T14:30:00;12.10;99.90
22249;DHT22;67538;52.180;5.646;2023-04-16T14:32:27;12.10;99.90
22249;DHT22;67538;52.180;5.646;2023-04-16T14:34:56;12.20;99.90
22249;DHT22;67538;52.180;5.646;2023-04-16T14:37:23;12.40;99.90
22249;DHT22;67538;52.180;5.646;2023-04-16T14:39:50;12.50;99.90
22249;DHT22;67538;52.180;5.646;2023-04-16T14:42:18;12.70;99.90
22249;DHT22;67538;52.180;5.646;2023-04-16T14:44:45;12.90;99.90
22249;DHT22;67538;52.180;5.646;2023-04-16T14:47:12;13.00;99.90
22249;DHT22;67538;52.180;5.646;2023-04-16T14:49:39;13.00;99.90
22249;DHT22;67538;52.180;5.646;2023-04-16T14:52:07;13.30;99.90
22249;DHT22;67538;52.180;5.646;2023-04-16T14:54:35;13.70;99.90
22249;DHT22;67538;52.180;5.646;2023-04-16T14:57:02;13.70;99.90
22249;DHT22;67538;52.180;5.646;2023-04-16T14:59:31;13.50;99.90
22249;DHT22;67538;52.180;5.646;2023-04-16T15:01:58;13.30;99.90
22249;DHT22;67538;52.180;5.646;2023-04-16T15:04:25;13.10;99.90
22249;DHT22;67538;52.180;5.646;2023-04-16T15:06:52;13.00;99.90
22249;DHT22;67538;52.180;5.646;2023-04-16T15:09:24;12.90;99.90
22249;DHT22;67538;52.180;5.646;2023-04-16T15:11:52;12.70;99.90
22249;DHT22;67538;52.180;5.646;2023-04-16T15:14:19;12.60;99.90
22249;DHT22;67538;52.180;5.646;2023-04-16T15:16:46;12.60;99.90
22249;DHT22;67538;52.180;5.646;2023-04-16T15:19:13;12.40;99.90
22249;DHT22;67538;52.180;5.646;2023-04-16T15:21:40;12.40;99.90
22249;DHT22;67538;52.180;5.646;2023-04-16T15:24:07;12.40;99.90
22249;DHT22;67538;52.180;5.646;2023-04-16T15:26:36;12.30;99.90
22249;DHT22;67538;52.180;5.646;2023-04-16T15:29:03;12.30;99.90
22249;DHT22;67538;52.180;5.646;2023-04-16T15:31:30;12.30;99.90
22249;DHT22;67538;52.180;5.646;2023-04-16T15:33:57;12.20;99.90
22249;DHT22;67538;52.180;5.646;2023-04-16T15:36:25;12.20;99.90
22249;DHT22;67538;52.180;5.646;2023-04-16T15:38:52;12.10;99.90
22249;DHT22;67538;52.180;5.646;2023-04-16T15:41:19;12.10;99.90
22249;DHT22;67538;52.180;5.646;2023-04-16T15:43:48;12.10;99.90